Time;durP1;ratioP1;P1;durP2;ratioP2;P2;SDS_P1;SDS_P2;PMS_P1;PMS_P2;Temp;Humidity;BMP_temperature;BMP_pressure;BME280_temperature;BME280_humidity;BME280_pressure;Samples;Min_cycle;Max_cycle;Signal;HPM_P1;HPM_P2
2023/05/05 00:00:14;;;;;;;10.18;5.50;;;;;;;12.97;nan;-23217.63;4974125;28;20615;-66
2023/05/05 00:02:40;;;;;;;13.77;5.72;;;;;;;13.17;nan;-21942.50;4974365;28;20205;-64
2023/05/05 00:05:06;;;;;;;7.53;4.70;;;;;;;13.24;nan;-21303.63;4974467;28;20652;-64
2023/05/05 00:07:31;;;;;;;9.07;4.93;;;;;;;12.78;nan;-21933.06;4973913;28;20220;-66
2023/05/05 00:09:56;;;;;;;12.20;5.63;;;;;;;13.11;nan;-21940.91;4972565;28;20228;-65
2023/05/05 00:12:22;;;;;;;10.20;5.25;;;;;;;12.90;nan;-21935.88;4973783;28;20178;-65
2023/05/05 00:14:47;;;;;;;8.80;5.07;;;;;;;13.04;nan;-21619.19;4973222;28;20289;-65
2023/05/05 00:17:13;;;;;;;13.73;5.10;;;;;;;12.96;nan;-21937.34;4974274;28;20279;-64
2023/05/05 00:19:40;;;;;;;9.70;5.30;;;;;;;12.92;nan;-22576.41;4974188;28;20181;-64
2023/05/05 00:22:06;;;;;;;11.15;5.82;;;;;;;12.74;nan;-22571.94;4974170;28;20216;-64
2023/05/05 00:24:31;;;;;;;11.32;5.90;;;;;;;12.86;nan;-22894.78;4974313;28;20205;-65
2023/05/05 00:26:57;;;;;;;12.05;6.05;;;;;;;12.85;nan;-22894.66;4974066;28;20181;-66
2023/05/05 00:29:22;;;;;;;10.27;5.32;;;;;;;12.76;nan;-22572.31;4974488;28;20526;-63
2023/05/05 00:31:50;;;;;;;9.25;5.38;;;;;;;13.09;nan;-22580.72;4974371;28;20174;-64
2023/05/05 00:34:16;;;;;;;9.85;5.50;;;;;;;13.07;nan;-22900.25;4974244;28;20779;-63
2023/05/05 00:36:41;;;;;;;14.13;5.80;;;;;;;12.78;nan;-22572.94;4973949;28;20173;-65
2023/05/05 00:39:07;;;;;;;10.95;6.07;;;;;;;12.99;nan;-22578.06;4973886;28;20264;-64
2023/05/05 00:41:32;;;;;;;10.07;5.70;;;;;;;13.01;nan;-22578.56;4973806;28;20169;-63
2023/05/05 00:43:58;;;;;;;12.77;5.63;;;;;;;13.04;nan;-21939.19;4974286;28;20181;-65
2023/05/05 00:46:26;;;;;;;9.90;5.75;;;;;;;13.06;nan;-21619.56;4974078;28;20285;-64
2023/05/05 00:48:53;;;;;;;11.73;6.07;;;;;;;13.04;nan;-21299.03;4977792;28;20177;-64
2023/05/05 00:51:19;;;;;;;11.00;5.32;;;;;;;12.84;nan;-21614.53;4975255;28;20180;-66
2023/05/05 00:53:46;;;;;;;12.25;5.78;;;;;;;13.00;nan;-21618.13;4973338;28;20181;-65
2023/05/05 00:56:12;;;;;;;9.07;5.47;;;;;;;13.12;nan;-21941.16;4973576;28;20169;-66
2023/05/05 00:58:40;;;;;;;10.70;5.50;;;;;;;13.16;nan;-21622.06;4974026;28;20244;-66
2023/05/05 01:01:05;;;;;;;11.60;5.72;;;;;;;12.88;nan;-21615.25;4973722;28;20224;-64
2023/05/05 01:03:31;;;;;;;11.25;5.68;;;;;;;13.24;nan;-21944.22;4973534;28;20181;-65
2023/05/05 01:06:05;;;;;;;13.95;6.70;;;;;;;13.22;nan;-21943.72;4973803;28;20181;-64
2023/05/05 01:09:00;;;;;;;8.93;5.57;;;;;;;13.12;nan;-22261.41;4973253;28;20176;-64
2023/05/05 01:12:02;;;;;;;11.10;5.82;;;;;;;12.92;nan;-22256.41;4974109;28;20313;-65
2023/05/05 01:14:38;;;;;;;9.38;5.35;;;;;;;12.89;nan;-22575.50;4971185;28;20758;-66
2023/05/05 01:17:13;;;;;;;11.73;5.70;;;;;;;13.26;nan;-22585.06;4973338;28;20252;-65
2023/05/05 01:20:15;;;;;;;9.50;5.35;;;;;;;13.27;nan;-22585.19;4973399;28;20670;-65
2023/05/05 01:22:46;;;;;;;9.05;4.75;;;;;;;13.21;nan;-22583.66;4973412;28;20834;-64
2023/05/05 01:25:25;;;;;;;9.20;5.13;;;;;;;12.97;nan;-22897.66;4972880;28;20598;-65
2023/05/05 01:28:18;;;;;;;12.27;6.20;;;;;;;13.24;nan;-22904.69;4973666;28;20617;-64
2023/05/05 01:31:15;;;;;;;10.05;5.30;;;;;;;13.24;nan;-22904.69;4973444;28;20173;-64
2023/05/05 01:33:48;;;;;;;12.02;5.68;;;;;;;12.75;nan;-22891.94;4973199;28;20193;-66
2023/05/05 01:36:24;;;;;;;12.18;5.28;;;;;;;12.98;nan;-22897.91;4973250;28;20268;-65
2023/05/05 01:38:56;;;;;;;8.48;4.68;;;;;;;13.09;nan;-22900.78;4973243;28;20197;-65
2023/05/05 01:41:27;;;;;;;8.80;5.13;;;;;;;12.97;nan;-23217.63;4987845;28;20264;-64
2023/05/05 01:43:55;;;;;;;9.52;5.60;;;;;;;13.17;nan;-23222.94;4972763;28;20173;-64
2023/05/05 01:46:23;;;;;;;9.98;5.68;;;;;;;13.14;nan;-23222.13;4973170;28;20201;-66
2023/05/05 01:48:51;;;;;;;11.18;5.72;;;;;;;13.16;nan;-22902.59;4973605;28;20165;-64
2023/05/05 01:51:18;;;;;;;12.02;5.70;;;;;;;12.85;nan;-22894.53;4975834;28;20759;-65
2023/05/05 01:53:46;;;;;;;10.60;5.72;;;;;;;13.12;nan;-22901.44;4972951;28;20185;-64
2023/05/05 01:56:14;;;;;;;9.95;5.70;;;;;;;12.91;nan;-22896.09;4973343;28;20177;-64
2023/05/05 01:58:43;;;;;;;9.75;5.63;;;;;;;13.11;nan;-22901.31;4972484;28;20581;-65
2023/05/05 02:01:11;;;;;;;10.13;5.55;;;;;;;13.08;nan;-23220.53;4973188;28;20212;-64
2023/05/05 02:03:38;;;;;;;10.23;5.50;;;;;;;13.09;nan;-23220.78;4973244;28;20170;-65
2023/05/05 02:06:06;;;;;;;12.45;6.35;;;;;;;13.15;nan;-23222.25;4972821;28;20188;-66
2023/05/05 02:08:34;;;;;;;12.70;6.05;;;;;;;12.85;nan;-23214.56;4972878;28;20204;-66
2023/05/05 02:11:00;;;;;;;11.55;5.82;;;;;;;12.85;nan;-23214.56;4971310;28;20232;-65
2023/05/05 02:13:28;;;;;;;10.43;5.55;;;;;;;12.82;nan;-23213.63;4975203;28;20181;-65
2023/05/05 02:15:54;;;;;;;10.98;5.90;;;;;;;12.91;nan;-22895.97;4976598;28;20177;-65
2023/05/05 02:18:21;;;;;;;9.93;5.22;;;;;;;12.86;nan;-22894.78;4976550;28;20262;-64
2023/05/05 02:20:47;;;;;;;10.73;5.47;;;;;;;12.91;nan;-22576.13;4992044;28;20568;-64
2023/05/05 02:23:13;;;;;;;7.18;4.60;;;;;;;13.21;nan;-21943.34;4976499;28;20169;-65
2023/05/05 02:25:44;;;;;;;11.50;5.65;;;;;;;13.00;nan;-20977.94;4976474;28;20182;-65
2023/05/05 02:28:32;;;;;;;9.18;5.10;;;;;;;13.08;nan;-20339.16;4976910;28;20158;-66
2023/05/05 02:30:59;;;;;;;8.52;4.88;;;;;;;13.24;nan;-20022.41;4976656;28;20177;-66
2023/05/05 02:33:27;;;;;;;8.38;5.07;;;;;;;12.98;nan;-19376.25;4976511;28;20166;-64
2023/05/05 02:35:56;;;;;;;7.93;4.63;;;;;;;12.97;nan;-19696.38;4975948;28;20174;-66
2023/05/05 02:38:26;;;;;;;10.32;5.57;;;;;;;12.96;nan;-19055.53;4976356;28;20209;-65
2023/05/05 02:40:55;;;;;;;9.68;5.40;;;;;;;12.75;nan;-20011.94;4976407;28;20169;-64
2023/05/05 02:43:24;;;;;;;7.50;4.88;;;;;;;12.95;nan;-18414.59;4976066;28;20283;-65
2023/05/05 02:45:49;;;;;;;9.32;4.40;;;;;;;12.79;nan;-19372.41;4976411;28;20162;-65
2023/05/05 02:48:15;;;;;;;8.65;4.93;;;;;;;13.16;nan;-20020.69;4978334;28;20192;-64
2023/05/05 02:50:40;;;;;;;7.47;4.78;;;;;;;13.24;nan;-19060.97;4980832;28;20201;-64
2023/05/05 02:53:06;;;;;;;8.32;4.88;;;;;;;13.16;nan;-19700.22;4976016;28;20658;-65
2023/05/05 02:55:53;;;;;;;11.90;5.60;;;;;;;12.71;nan;-21291.31;4975926;28;20213;-64
2023/05/05 02:58:38;;;;;;;9.07;5.03;;;;;;;13.08;nan;-20979.78;4975724;28;20295;-65
2023/05/05 03:01:09;;;;;;;9.82;4.88;;;;;;;13.02;nan;-21618.72;4975309;28;20181;-66
2023/05/05 03:03:50;;;;;;;10.27;5.13;;;;;;;12.94;nan;-21616.81;4975709;28;20257;-64
2023/05/05 03:06:19;;;;;;;11.77;5.22;;;;;;;12.98;nan;-21937.84;4990825;28;20185;-64
2023/05/05 03:08:53;;;;;;;9.25;4.28;;;;;;;12.72;nan;-21931.47;4975957;28;20248;-64
2023/05/05 03:11:33;;;;;;;9.40;5.22;;;;;;;13.02;nan;-21938.81;4974153;28;20297;-65
2023/05/05 03:14:10;;;;;;;9.90;5.25;;;;;;;12.79;nan;-21613.22;4975326;28;20212;-65
2023/05/05 03:16:38;;;;;;;9.10;5.20;;;;;;;12.96;nan;-21297.16;4975247;28;20249;-65
2023/05/05 03:19:05;;;;;;;9.30;5.50;;;;;;;12.83;nan;-21294.25;4975185;28;20248;-64
2023/05/05 03:21:32;;;;;;;11.75;5.25;;;;;;;12.97;nan;-21297.41;4977071;28;20632;-64
2023/05/05 03:23:57;;;;;;;10.98;5.32;;;;;;;13.20;nan;-21302.78;4974932;28;20264;-65
2023/05/05 03:26:23;;;;;;;9.98;5.15;;;;;;;13.26;nan;-20983.91;4973817;28;20272;-66
2023/05/05 03:28:49;;;;;;;8.48;5.22;;;;;;;13.11;nan;-21620.88;4975108;28;20165;-68
2023/05/05 03:31:15;;;;;;;9.77;5.28;;;;;;;12.98;nan;-21297.66;4974987;28;20178;-67
2023/05/05 03:33:41;;;;;;;9.50;4.90;;;;;;;12.79;nan;-19692.63;4974820;28;20209;-65
2023/05/05 03:36:07;;;;;;;10.32;4.80;;;;;;;12.76;nan;-18731.41;4974936;28;20660;-65
2023/05/05 03:38:32;;;;;;;9.40;4.47;;;;;;;13.17;nan;-17136.28;4974261;28;20197;-66
2023/05/05 03:41:02;;;;;;;9.07;4.85;;;;;;;12.81;nan;-18732.28;4974511;28;20582;-66
2023/05/05 03:43:27;;;;;;;8.70;4.55;;;;;;;12.79;nan;-18411.69;4974885;28;20173;-66
2023/05/05 03:45:53;;;;;;;8.48;4.30;;;;;;;12.74;nan;-17770.00;4975009;28;20323;-64
2023/05/05 03:48:18;;;;;;;9.25;4.43;;;;;;;13.01;nan;-19056.41;4975172;28;20185;-66
2023/05/05 03:50:44;;;;;;;10.48;3.95;;;;;;;12.68;nan;-14243.50;4979958;28;20601;-64
2023/05/05 03:53:10;;;;;;;7.50;4.07;;;;;;;12.97;nan;-12963.34;4974910;28;20268;-65
2023/05/05 03:55:35;;;;;;;6.72;4.07;;;;;;;12.77;nan;-13923.78;4975254;28;20173;-65
2023/05/05 03:58:01;;;;;;;6.35;3.53;;;;;;;12.84;nan;-10393.97;4974946;28;20300;-65
2023/05/05 04:00:27;;;;;;;7.35;3.72;;;;;;;12.90;nan;-11036.59;4974690;28;20660;-64
2023/05/05 04:02:52;;;;;;;5.28;3.60;;;;;;;12.97;nan;-10394.72;4974633;28;20667;-64
2023/05/05 04:05:18;;;;;;;4.85;3.00;;;;;;;12.77;nan;-10714.69;4974817;28;20239;-65
2023/05/05 04:07:44;;;;;;;4.97;3.22;;;;;;;12.86;nan;-10394.09;4974364;28;20189;-65
2023/05/05 04:10:09;;;;;;;4.80;2.95;;;;;;;12.87;nan;-9751.75;4974509;28;20221;-66
2023/05/05 04:12:35;;;;;;;5.68;3.47;;;;;;;13.28;nan;-9110.69;4974373;28;20170;-64
2023/05/05 04:15:00;;;;;;;6.07;3.75;;;;;;;13.19;nan;-9110.38;4974273;28;20205;-65
2023/05/05 04:17:25;;;;;;;5.13;3.20;;;;;;;13.05;nan;-9109.88;4974455;28;20239;-66
2023/05/05 04:19:51;;;;;;;5.07;3.10;;;;;;;13.05;nan;-10395.16;4974170;28;20173;-66
2023/05/05 04:22:16;;;;;;;5.45;3.58;;;;;;;12.88;nan;-9430.56;4973863;28;20223;-67
2023/05/05 04:24:42;;;;;;;6.82;3.65;;;;;;;12.95;nan;-10394.56;4974167;28;20169;-66
2023/05/05 04:27:07;;;;;;;6.10;3.70;;;;;;;12.85;nan;-9430.47;4974148;28;20178;-64
2023/05/05 04:29:32;;;;;;;4.75;3.30;;;;;;;12.95;nan;-10715.75;4974306;28;20303;-64
2023/05/05 04:31:58;;;;;;;7.20;3.30;;;;;;;12.95;nan;-10715.75;4973738;28;20177;-65
2023/05/05 04:34:23;;;;;;;6.65;3.53;;;;;;;12.95;nan;-11358.03;4973912;28;20656;-65
2023/05/05 04:36:48;;;;;;;6.38;3.33;;;;;;;12.95;nan;-12321.19;4973127;28;20223;-64
2023/05/05 04:39:14;;;;;;;5.15;3.17;;;;;;;12.88;nan;-11036.44;4973940;28;20605;-67
2023/05/05 04:41:39;;;;;;;5.63;3.35;;;;;;;12.83;nan;-10393.94;4973768;28;20177;-66
2023/05/05 04:44:05;;;;;;;5.47;3.38;;;;;;;12.85;nan;-10394.03;4974162;28;20566;-67
2023/05/05 04:46:30;;;;;;;5.57;3.60;;;;;;;13.04;nan;-11037.53;4973546;28;20177;-67
2023/05/05 04:48:57;;;;;;;6.15;3.58;;;;;;;12.74;nan;-11356.56;4973647;28;20735;-64
2023/05/05 04:51:23;;;;;;;4.95;3.05;;;;;;;13.20;nan;-10717.31;4978005;28;20257;-64
2023/05/05 04:53:48;;;;;;;6.13;3.65;;;;;;;12.90;nan;-9751.91;4975183;28;20264;-63
2023/05/05 04:56:13;;;;;;;6.95;4.00;;;;;;;13.22;nan;-9431.94;4973672;28;20666;-64
2023/05/05 04:58:39;;;;;;;4.70;3.35;;;;;;;13.28;nan;-9432.19;4972222;28;20221;-65
2023/05/05 05:01:04;;;;;;;8.95;4.32;;;;;;;13.10;nan;-7824.22;4973660;28;20169;-67
2023/05/05 05:03:30;;;;;;;8.38;3.40;;;;;;;13.32;nan;-8146.13;4972685;28;20185;-65
2023/05/05 05:05:56;;;;;;;4.80;3.33;;;;;;;13.12;nan;-7824.25;4973415;28;20253;-67
2023/05/05 05:08:21;;;;;;;5.70;3.67;;;;;;;13.10;nan;-8467.22;4973433;28;20273;-65
2023/05/05 05:10:47;;;;;;;6.15;3.65;;;;;;;13.19;nan;-9431.81;4973458;28;20594;-65
2023/05/05 05:13:12;;;;;;;5.95;3.90;;;;;;;13.53;nan;-9111.53;4973147;28;20236;-64
2023/05/05 05:15:38;;;;;;;7.28;3.78;;;;;;;13.53;nan;-8789.88;4973202;28;20174;-67
2023/05/05 05:18:03;;;;;;;5.38;3.33;;;;;;;13.57;nan;-7181.22;4987955;28;20680;-66
2023/05/05 05:20:30;;;;;;;6.88;3.75;;;;;;;13.42;nan;-7502.94;4973159;28;20197;-66
2023/05/05 05:22:56;;;;;;;7.45;3.95;;;;;;;13.49;nan;-7503.00;4971553;28;20189;-65
2023/05/05 05:25:22;;;;;;;5.45;3.30;;;;;;;13.76;nan;-7825.06;4976891;28;20192;-65
2023/05/05 05:27:47;;;;;;;6.63;3.95;;;;;;;13.79;nan;-7503.22;4974777;28;20584;-64
2023/05/05 05:30:13;;;;;;;5.20;3.47;;;;;;;13.76;nan;-7181.28;4972694;28;20658;-64
2023/05/05 05:32:38;;;;;;;6.75;3.38;;;;;;;13.73;nan;-7503.19;4972369;28;20645;-65
2023/05/05 05:35:04;;;;;;;6.55;3.53;;;;;;;13.87;nan;-8147.13;4972207;28;20243;-65
2023/05/05 05:37:30;;;;;;;6.88;3.58;;;;;;;13.66;nan;-4927.31;4972657;28;20196;-66
2023/05/05 05:39:55;;;;;;;6.25;3.70;;;;;;;13.77;nan;-4282.56;4972624;28;20216;-66
2023/05/05 05:42:21;;;;;;;7.07;3.22;;;;;;;13.93;nan;-2992.31;4972634;28;20667;-65
2023/05/05 05:44:47;;;;;;;6.80;3.95;;;;;;;14.33;nan;-1376.13;4972546;28;20193;-64
2023/05/05 05:47:12;;;;;;;6.03;3.50;;;;;;;14.16;nan;-2668.22;4972559;28;20182;-63
2023/05/05 05:49:38;;;;;;;8.50;3.97;;;;;;;14.31;nan;-407.78;4974698;28;20169;-66
2023/05/05 05:52:03;;;;;;;8.23;3.70;;;;;;;14.14;nan;558.97;4995651;28;20173;-64
2023/05/05 05:54:29;;;;;;;6.53;3.53;;;;;;;14.17;nan;-1054.84;4976357;28;20184;-65
2023/05/05 05:56:54;;;;;;;6.55;3.42;;;;;;;14.69;nan;888.91;4976742;28;20165;-67
2023/05/05 05:59:19;;;;;;;6.15;3.75;;;;;;;14.65;nan;2504.81;4976480;28;20245;-66
2023/05/05 06:01:45;;;;;;;6.90;3.55;;;;;;;14.78;nan;2183.44;4975432;28;20181;-67
2023/05/05 06:04:10;;;;;;;6.28;3.40;;;;;;;14.54;nan;4766.94;4975495;28;20166;-66
2023/05/05 06:06:35;;;;;;;5.65;3.50;;;;;;;15.14;nan;8018.31;4975756;28;20179;-65
2023/05/05 06:09:01;;;;;;;5.13;3.47;;;;;;;14.78;nan;12872.69;4976349;28;20181;-66
2023/05/05 06:11:26;;;;;;;6.75;3.70;;;;;;;14.97;nan;11581.00;4975833;28;20312;-64
2023/05/05 06:13:52;;;;;;;6.70;3.40;;;;;;;15.15;nan;12560.03;4976144;28;20538;-63
2023/05/05 06:16:17;;;;;;;4.63;2.55;;;;;;;14.79;nan;14170.91;4976322;28;20268;-65
2023/05/05 06:18:43;;;;;;;5.07;3.42;;;;;;;15.16;nan;16133.00;4975887;28;20584;-65
2023/05/05 06:21:08;;;;;;;4.40;3.13;;;;;;;14.32;nan;14479.00;4975663;28;20185;-67
2023/05/05 06:23:33;;;;;;;6.97;3.13;;;;;;;15.32;nan;15488.88;4975905;28;20663;-66
2023/05/05 06:25:59;;;;;;;6.00;3.22;;;;;;;15.15;nan;19383.56;4975818;28;20201;-65
2023/05/05 06:28:24;;;;;;;5.57;3.10;;;;;;;15.48;nan;23631.47;4975668;28;20185;-64
2023/05/05 06:30:50;;;;;;;4.07;2.90;;;;;;;15.46;nan;25260.38;4975873;28;20173;-63
2023/05/05 06:33:16;;;;;;;5.03;2.72;;;;;;;15.85;nan;25280.88;4978009;28;20189;-66
2023/05/05 06:35:41;;;;;;;4.15;2.88;;;;;;;15.60;nan;37027.47;4975994;28;20615;-64
2023/05/05 06:38:06;;;;;;;5.55;3.28;;;;;;;15.58;nan;37680.53;4977599;28;20243;-66
2023/05/05 06:40:32;;;;;;;3.85;2.63;;;;;;;15.84;nan;40657.75;4975661;28;20178;-65
2023/05/05 06:42:57;;;;;;;4.90;3.30;;;;;;;16.00;nan;43685.56;4977169;28;20271;-65
2023/05/05 06:45:23;;;;;;;4.53;2.95;;;;;;;16.26;nan;46611.88;4976585;28;20177;-65
2023/05/05 06:47:48;;;;;;;4.97;2.90;;;;;;;16.29;nan;46457.97;4975884;28;20189;-66
2023/05/05 06:50:14;;;;;;;5.63;3.28;;;;;;;16.66;nan;51521.94;4979482;28;20177;-65
2023/05/05 06:52:40;;;;;;;4.82;2.95;;;;;;;17.38;nan;54955.25;4978242;28;20251;-65
2023/05/05 06:55:06;;;;;;;3.80;2.50;;;;;;;16.99;nan;56964.84;4975306;28;20177;-67
2023/05/05 06:57:31;;;;;;;4.32;2.75;;;;;;;17.14;nan;57225.66;4975562;28;20224;-67
2023/05/05 06:59:56;;;;;;;4.18;2.83;;;;;;;17.28;nan;57835.78;4973967;28;20177;-65
2023/05/05 07:02:22;;;;;;;4.20;2.75;;;;;;;17.45;nan;58934.66;4974074;28;20191;-64
2023/05/05 07:04:47;;;;;;;4.45;2.95;;;;;;;17.33;nan;58663.56;4974593;28;20189;-65
2023/05/05 07:07:12;;;;;;;5.38;3.50;;;;;;;17.35;nan;58973.34;4973876;28;20185;-68
2023/05/05 07:09:40;;;;;;;3.90;2.60;;;;;;;17.27;nan;59632.94;4977467;28;20319;-69
2023/05/05 07:12:06;;;;;;;4.10;3.00;;;;;;;17.33;nan;59597.72;4975453;28;20180;-67
2023/05/05 07:14:31;;;;;;;4.55;2.85;;;;;;;18.13;nan;60098.81;4975102;28;20177;-66
2023/05/05 07:16:56;;;;;;;5.20;2.90;;;;;;;18.22;nan;60587.06;4975256;28;20249;-63
2023/05/05 07:19:22;;;;;;;4.13;3.03;;;;;;;17.91;nan;60441.31;4974818;28;20346;-67
2023/05/05 07:21:47;;;;;;;4.25;2.80;;;;;;;18.12;nan;60418.22;4974767;28;20177;-65
2023/05/05 07:24:13;;;;;;;4.75;2.78;;;;;;;17.89;nan;60454.59;4974966;28;20176;-66
2023/05/05 07:26:38;;;;;;;5.03;3.00;;;;;;;17.90;nan;60544.13;4975415;28;20638;-65
2023/05/05 07:29:05;;;;;;;4.72;2.78;;;;;;;17.93;nan;60505.59;4975030;28;20260;-67
2023/05/05 07:31:31;;;;;;;4.35;2.90;;;;;;;18.45;nan;60669.09;4974673;28;20173;-64
2023/05/05 07:33:56;;;;;;;4.10;2.78;;;;;;;19.04;nan;60798.72;4974470;28;20172;-66
2023/05/05 07:36:23;;;;;;;4.05;2.72;;;;;;;19.23;nan;60913.81;4974829;28;20173;-65
2023/05/05 07:38:48;;;;;;;4.03;2.70;;;;;;;18.74;nan;60880.09;4974529;28;20288;-67
2023/05/05 07:41:14;;;;;;;4.63;3.10;;;;;;;18.92;nan;60907.50;4974370;28;20249;-68
2023/05/05 07:43:40;;;;;;;3.67;2.42;;;;;;;19.60;nan;61182.25;4974205;28;20237;-67
2023/05/05 07:46:06;;;;;;;3.97;2.60;;;;;;;19.34;nan;61120.41;4973533;28;20196;-69
2023/05/05 07:48:32;;;;;;;4.90;2.80;;;;;;;19.48;nan;61210.75;4980721;28;20181;-69
2023/05/05 07:50:57;;;;;;;4.57;3.08;;;;;;;19.50;nan;61067.91;4975229;28;20185;-66
2023/05/05 07:53:23;;;;;;;4.40;2.88;;;;;;;19.75;nan;61083.06;4974830;28;20174;-65
2023/05/05 07:55:48;;;;;;;4.35;2.47;;;;;;;19.75;nan;61131.75;4974383;28;20186;-66
2023/05/05 07:58:13;;;;;;;6.05;2.88;;;;;;;19.33;nan;61220.31;4974418;28;20553;-66
2023/05/05 08:00:39;;;;;;;3.88;2.72;;;;;;;19.55;nan;61158.50;4974813;28;20181;-67
2023/05/05 08:03:05;;;;;;;5.53;3.40;;;;;;;19.96;nan;61154.81;4974378;28;20181;-65
2023/05/05 08:05:30;;;;;;;3.95;2.60;;;;;;;19.80;nan;61152.94;4974521;28;20173;-63
2023/05/05 08:07:55;;;;;;;4.88;3.05;;;;;;;19.27;nan;61166.94;4972866;28;20177;-62
2023/05/05 08:10:21;;;;;;;4.10;2.97;;;;;;;19.79;nan;61214.03;4973356;28;20232;-65
2023/05/05 08:12:47;;;;;;;5.07;3.00;;;;;;;20.28;nan;61266.09;4972246;28;20185;-64
2023/05/05 08:15:12;;;;;;;7.03;2.85;;;;;;;20.11;nan;61363.66;4974071;28;20340;-62
2023/05/05 08:17:45;;;;;;;3.13;2.35;;;;;;;20.31;nan;61328.59;4972925;28;20696;-64
2023/05/05 08:20:10;;;;;;;4.30;2.92;;;;;;;20.16;nan;61406.16;4973212;28;20491;-62
2023/05/05 08:22:36;;;;;;;3.75;2.88;;;;;;;19.63;nan;61297.66;4974044;28;20177;-58
2023/05/05 08:25:01;;;;;;;3.85;2.63;;;;;;;19.72;nan;61219.09;4974671;28;20181;-59
2023/05/05 08:27:26;;;;;;;5.70;3.00;;;;;;;19.12;nan;61180.56;4974090;28;20708;-57
2023/05/05 08:29:52;;;;;;;4.60;2.80;;;;;;;19.29;nan;61189.91;4973942;28;20169;-54
2023/05/05 08:32:17;;;;;;;3.95;2.95;;;;;;;19.63;nan;61198.59;4973537;28;20661;-63
2023/05/05 08:34:43;;;;;;;4.35;2.75;;;;;;;19.87;nan;61285.28;4974159;28;20166;-61
2023/05/05 08:37:08;;;;;;;6.82;3.15;;;;;;;19.79;nan;61281.97;4974239;28;20176;-62
2023/05/05 08:39:33;;;;;;;5.07;2.80;;;;;;;19.79;nan;61232.72;4974543;28;20197;-61
2023/05/05 08:41:59;;;;;;;3.85;2.50;;;;;;;19.68;nan;61240.50;4973687;28;20210;-62
2023/05/05 08:44:25;;;;;;;6.85;2.75;;;;;;;20.01;nan;61284.94;4973896;28;20656;-61
2023/05/05 08:46:52;;;;;;;4.40;2.67;;;;;;;19.75;nan;61297.66;4973377;28;20181;-65
2023/05/05 08:49:18;;;;;;;3.78;2.63;;;;;;;20.07;nan;61323.38;4976134;28;20165;-62
2023/05/05 08:51:45;;;;;;;4.22;2.70;;;;;;;20.01;nan;61373.09;4973955;28;20240;-60
2023/05/05 08:54:18;;;;;;;3.97;2.47;;;;;;;20.38;nan;61385.81;4973866;28;20743;-62
2023/05/05 08:56:45;;;;;;;5.05;2.92;;;;;;;20.54;nan;61453.75;4973780;28;20173;-63
2023/05/05 08:59:13;;;;;;;5.13;2.80;;;;;;;20.21;nan;61458.50;4973289;28;20211;-62
2023/05/05 09:01:40;;;;;;;3.50;2.55;;;;;;;20.51;nan;61462.78;4972277;28;20178;-63
2023/05/05 09:04:07;;;;;;;6.00;2.80;;;;;;;20.04;nan;61423.16;4973548;28;20197;-61
2023/05/05 09:06:34;;;;;;;5.05;2.70;;;;;;;19.89;nan;61352.34;4973125;28;20559;-62
2023/05/05 09:09:00;;;;;;;3.78;2.42;;;;;;;20.10;nan;61554.47;4972641;28;20235;-62
2023/05/05 09:11:26;;;;;;;4.85;2.85;;;;;;;20.38;nan;61459.03;4972049;28;20312;-68
2023/05/05 09:13:52;;;;;;;4.35;2.78;;;;;;;20.50;nan;61503.72;4972121;28;20189;-70
2023/05/05 09:16:18;;;;;;;4.25;2.92;;;;;;;20.51;nan;61551.03;4973891;28;20173;-72
2023/05/05 09:18:44;;;;;;;3.88;2.72;;;;;;;20.63;nan;61572.38;4989010;28;20205;-67
2023/05/05 09:21:24;;;;;;;3.92;2.63;;;;;;;20.89;nan;61627.22;4973218;28;20181;-67
2023/05/05 09:24:06;;;;;;;4.50;2.90;;;;;;;20.42;nan;61569.94;4973508;28;20169;-67
2023/05/05 09:26:33;;;;;;;3.95;2.55;;;;;;;20.12;nan;61533.38;4972663;28;20252;-67
2023/05/05 09:29:00;;;;;;;3.45;2.38;;;;;;;20.53;nan;61615.59;4973245;28;20204;-67
2023/05/05 09:31:26;;;;;;;3.88;2.50;;;;;;;20.66;nan;61596.56;4973417;28;20184;-67
2023/05/05 09:33:51;;;;;;;3.45;2.53;;;;;;;20.90;nan;61847.09;4973406;28;20309;-68
2023/05/05 09:36:17;;;;;;;4.45;2.92;;;;;;;20.70;nan;61658.78;4973097;28;20181;-68
2023/05/05 09:39:03;;;;;;;4.60;2.83;;;;;;;21.11;nan;61704.69;4973095;28;20201;-67
2023/05/05 09:41:43;;;;;;;3.58;2.60;;;;;;;21.09;nan;61720.03;4973021;28;20173;-68
2023/05/05 09:44:09;;;;;;;3.70;2.30;;;;;;;21.22;nan;61742.03;4973097;28;20169;-67
2023/05/05 09:46:34;;;;;;;3.47;2.25;;;;;;;21.53;nan;61847.41;4973059;28;20291;-68
2023/05/05 09:49:18;;;;;;;4.20;2.65;;;;;;;21.51;nan;61795.72;4978633;28;20640;-67
2023/05/05 09:51:45;;;;;;;3.88;2.47;;;;;;;21.30;nan;61782.31;4973418;28;20173;-68
2023/05/05 09:54:28;;;;;;;4.00;2.60;;;;;;;21.52;nan;61833.25;4973099;28;20165;-68
2023/05/05 09:56:55;;;;;;;3.38;2.30;;;;;;;21.13;nan;61812.94;4973173;28;20179;-68
2023/05/05 09:59:21;;;;;;;4.80;2.58;;;;;;;21.55;nan;61878.28;4971722;28;20295;-67
2023/05/05 10:01:48;;;;;;;3.38;2.42;;;;;;;21.62;nan;61823.81;4972934;28;20268;-67
2023/05/05 10:04:28;;;;;;;4.20;2.50;;;;;;;21.59;nan;61864.63;4973077;28;20200;-67
2023/05/05 10:06:57;;;;;;;4.20;2.30;;;;;;;21.21;nan;61866.22;4973005;28;20554;-67
2023/05/05 10:09:26;;;;;;;3.40;2.50;;;;;;;20.84;nan;61801.34;4973052;28;20177;-68
2023/05/05 10:11:54;;;;;;;3.53;2.60;;;;;;;21.16;nan;61816.34;4972977;28;20663;-68
2023/05/05 10:14:22;;;;;;;3.70;2.55;;;;;;;20.60;nan;61740.91;4972844;28;20193;-71
2023/05/05 10:16:53;;;;;;;4.63;2.75;;;;;;;20.64;nan;61786.97;4972900;28;20664;-68
2023/05/05 10:19:20;;;;;;;3.38;2.05;;;;;;;20.75;nan;61767.19;4972806;28;20204;-68
2023/05/05 10:21:49;;;;;;;3.85;2.70;;;;;;;20.42;nan;61911.97;4972732;28;20200;-67
2023/05/05 10:24:45;;;;;;;3.40;2.25;;;;;;;21.02;nan;61803.03;4974372;28;20185;-68
2023/05/05 10:27:15;;;;;;;5.93;2.80;;;;;;;21.59;nan;61896.38;4972789;28;20243;-68
2023/05/05 10:30:02;;;;;;;3.78;2.42;;;;;;;21.67;nan;61891.94;4972743;28;20251;-69
2023/05/05 10:32:42;;;;;;;3.10;2.25;;;;;;;21.57;nan;61842.13;4972112;28;20608;-67
2023/05/05 10:35:09;;;;;;;3.55;2.33;;;;;;;21.36;nan;61828.09;4973724;28;20169;-67
2023/05/05 10:37:36;;;;;;;3.20;2.50;;;;;;;21.22;nan;61823.16;4976046;28;20211;-68
2023/05/05 10:40:03;;;;;;;3.33;2.45;;;;;;;20.85;nan;61765.56;4976425;28;20182;-68
2023/05/05 10:42:28;;;;;;;4.72;2.47;;;;;;;20.41;nan;61960.72;4975623;28;20253;-67
2023/05/05 10:44:54;;;;;;;4.00;2.60;;;;;;;20.88;nan;61787.69;4975626;28;20192;-69
2023/05/05 10:47:21;;;;;;;3.83;2.38;;;;;;;21.09;nan;61795.94;4980429;28;20185;-67
2023/05/05 10:50:17;;;;;;;3.70;2.75;;;;;;;21.40;nan;61856.63;4977151;28;20170;-67
2023/05/05 10:53:05;;;;;;;4.00;2.35;;;;;;;20.87;nan;61848.31;4976282;28;20224;-67
2023/05/05 10:55:46;;;;;;;5.50;2.63;;;;;;;20.85;nan;61799.88;4976227;28;20170;-67
2023/05/05 10:58:35;;;;;;;4.65;2.88;;;;;;;21.66;nan;61885.59;4975276;28;20197;-67
2023/05/05 11:01:02;;;;;;;5.82;2.67;;;;;;;21.21;nan;61780.44;4980370;28;20197;-68
2023/05/05 11:03:27;;;;;;;5.32;2.67;;;;;;;21.04;nan;62003.31;4975761;28;20173;-68
2023/05/05 11:06:02;;;;;;;4.03;2.42;;;;;;;21.48;nan;61896.91;4975591;28;20193;-68
2023/05/05 11:08:29;;;;;;;4.55;2.78;;;;;;;21.63;nan;61938.81;4975515;28;20738;-69
2023/05/05 11:10:55;;;;;;;3.25;2.70;;;;;;;21.88;nan;61921.00;4975403;28;20253;-68
2023/05/05 11:13:20;;;;;;;3.42;2.53;;;;;;;22.58;nan;61981.25;4976108;28;20223;-67
2023/05/05 11:15:47;;;;;;;3.75;2.28;;;;;;;23.21;nan;62080.53;4975881;28;20228;-67
2023/05/05 11:18:34;;;;;;;3.75;2.30;;;;;;;23.78;nan;62210.72;4974695;28;20620;-68
2023/05/05 11:21:14;;;;;;;3.88;2.55;;;;;;;24.09;nan;62239.72;4990123;28;20568;-67
2023/05/05 11:23:41;;;;;;;3.63;2.42;;;;;;;24.16;nan;62260.78;4975933;28;20181;-68
2023/05/05 11:26:07;;;;;;;4.72;2.80;;;;;;;24.11;nan;62266.06;4975637;28;20180;-67
2023/05/05 11:28:33;;;;;;;3.47;2.40;;;;;;;24.14;nan;62255.84;4975392;28;20174;-68
2023/05/05 11:30:58;;;;;;;4.57;2.53;;;;;;;24.24;nan;62217.66;4975648;28;20195;-67
2023/05/05 11:33:29;;;;;;;4.90;2.80;;;;;;;23.77;nan;62180.84;4975599;28;20178;-68
2023/05/05 11:35:55;;;;;;;6.30;2.78;;;;;;;23.92;nan;62192.16;4975164;28;20243;-67
2023/05/05 11:38:46;;;;;;;3.08;2.20;;;;;;;23.70;nan;62245.94;4975117;28;20699;-67
2023/05/05 11:41:32;;;;;;;3.58;2.70;;;;;;;23.56;nan;62263.88;4978689;28;20193;-68
2023/05/05 11:44:17;;;;;;;4.20;2.47;;;;;;;23.60;nan;62160.91;4975011;28;20161;-68
2023/05/05 11:46:49;;;;;;;4.20;2.42;;;;;;;23.84;nan;62391.88;4974561;28;20264;-68
2023/05/05 11:49:28;;;;;;;3.63;2.58;;;;;;;23.57;nan;62142.41;4977163;28;20173;-68
2023/05/05 11:52:01;;;;;;;3.17;2.28;;;;;;;23.76;nan;62380.69;4974971;28;20632;-68